Terminal Aerodrome Forecast
Issued by NWS Blacksburg, VA

Current Version | Previous Version | Text Only | Print | Product List | Glossary Off
Versions: 1 2 3 4 5 6 7 8 9 10 11 12 13 14 15 16 17 18 19 20 21 22 23 24 25 26 27 28 29 30 31 32 33 34 35 36 37 38 39 40 41 42 43 44 45 46

000
FTUS41 KRNK 181124
TAFBLF
TAF
KBLF 181124Z 1812/1912 25005KT 1/4SM FG VV001
      TEMPO 1812/1813 3SM BR SCT001 BKN060
     FM181400 00000KT 5SM BR SCT012 BKN020
     FM181600 27004KT P6SM BKN040
     FM182300 VRB03KT P6SM SCT045 BKN080
     FM190600 12004KT 5SM BR BKN040
     FM191100 13003KT 2SM BR SCT005 BKN015=

USA.gov is the U.S. government's official web portal to all federal, state and local government web resources and services.